Terminal Aerodrome Forecast
Issued by NWS

Home | Current Version | Previous Version | Text Only | Print | Product List | Glossary On
Versions: 1 2 3 4 5 6 7 8 9 10 11 12 13 14 15 16 17 18 19 20 21 22 23 24 25 26 27 28 29 30 31 32 33 34 35 36 37
000
FTAK31 PAFA 211937 AAA
TAFABT
TAF AMD
PABT 211937Z 2120/2218 14004KT 3SM -SNRA BR FEW005 BKN011 OVC040
     FM212100 32004KT P6SM SCT035 BKN050 OVC100
     FM220100 30005KT P6SM SCT050 BKN100
     FM221400 VRB03KT P6SM VCFG FEW004=

USA.gov is the U.S. government's official web portal to all federal, state and local government web resources and services.